sensor_id;sensor_type;location;lat;lon;timestamp;P1;durP1;ratioP1;P2;durP2;ratioP2
46889;SDS011;32625;51.080;16.970;2023-12-07T00:00:06;164.65;;;92.80;;
46889;SDS011;32625;51.080;16.970;2023-12-07T00:02:34;158.43;;;89.32;;
46889;SDS011;32625;51.080;16.970;2023-12-07T00:05:01;153.73;;;85.43;;
46889;SDS011;32625;51.080;16.970;2023-12-07T00:07:30;158.90;;;86.25;;
46889;SDS011;32625;51.080;16.970;2023-12-07T00:09:57;153.68;;;84.18;;
46889;SDS011;32625;51.080;16.970;2023-12-07T00:12:24;151.52;;;83.43;;
46889;SDS011;32625;51.080;16.970;2023-12-07T00:14:52;152.23;;;82.15;;
46889;SDS011;32625;51.080;16.970;2023-12-07T00:17:19;153.05;;;79.85;;
46889;SDS011;32625;51.080;16.970;2023-12-07T00:19:47;161.93;;;92.10;;
46889;SDS011;32625;51.080;16.970;2023-12-07T00:22:15;158.32;;;86.43;;
46889;SDS011;32625;51.080;16.970;2023-12-07T00:24:42;159.77;;;88.07;;
46889;SDS011;32625;51.080;16.970;2023-12-07T00:27:09;153.75;;;84.60;;
46889;SDS011;32625;51.080;16.970;2023-12-07T00:29:39;150.88;;;82.30;;
46889;SDS011;32625;51.080;16.970;2023-12-07T00:32:07;152.70;;;86.93;;
46889;SDS011;32625;51.080;16.970;2023-12-07T00:34:34;157.80;;;83.43;;
46889;SDS011;32625;51.080;16.970;2023-12-07T00:37:02;150.57;;;80.30;;
46889;SDS011;32625;51.080;16.970;2023-12-07T00:39:29;148.55;;;81.70;;
46889;SDS011;32625;51.080;16.970;2023-12-07T00:41:57;156.45;;;85.10;;
46889;SDS011;32625;51.080;16.970;2023-12-07T00:44:24;144.27;;;80.97;;
46889;SDS011;32625;51.080;16.970;2023-12-07T00:46:51;149.70;;;80.30;;
46889;SDS011;32625;51.080;16.970;2023-12-07T00:49:19;155.68;;;76.95;;
46889;SDS011;32625;51.080;16.970;2023-12-07T00:51:46;146.70;;;76.43;;
46889;SDS011;32625;51.080;16.970;2023-12-07T00:54:14;147.00;;;77.95;;
46889;SDS011;32625;51.080;16.970;2023-12-07T00:56:42;146.02;;;80.32;;
46889;SDS011;32625;51.080;16.970;2023-12-07T00:59:09;147.50;;;83.82;;
46889;SDS011;32625;51.080;16.970;2023-12-07T01:01:36;138.93;;;76.97;;
46889;SDS011;32625;51.080;16.970;2023-12-07T01:04:05;149.15;;;79.18;;
46889;SDS011;32625;51.080;16.970;2023-12-07T01:06:32;134.48;;;72.97;;
46889;SDS011;32625;51.080;16.970;2023-12-07T01:09:00;143.05;;;77.28;;
46889;SDS011;32625;51.080;16.970;2023-12-07T01:11:27;136.23;;;72.72;;
46889;SDS011;32625;51.080;16.970;2023-12-07T01:13:54;129.77;;;71.88;;
46889;SDS011;32625;51.080;16.970;2023-12-07T01:16:22;142.77;;;77.15;;
46889;SDS011;32625;51.080;16.970;2023-12-07T01:18:51;137.35;;;73.53;;
46889;SDS011;32625;51.080;16.970;2023-12-07T01:21:18;134.27;;;69.13;;
46889;SDS011;32625;51.080;16.970;2023-12-07T01:23:46;127.80;;;67.68;;
46889;SDS011;32625;51.080;16.970;2023-12-07T01:26:16;134.80;;;74.82;;
46889;SDS011;32625;51.080;16.970;2023-12-07T01:28:43;140.07;;;74.43;;
46889;SDS011;32625;51.080;16.970;2023-12-07T01:31:10;132.00;;;71.60;;
46889;SDS011;32625;51.080;16.970;2023-12-07T01:33:38;133.60;;;71.32;;
46889;SDS011;32625;51.080;16.970;2023-12-07T01:36:05;146.98;;;81.70;;
46889;SDS011;32625;51.080;16.970;2023-12-07T01:38:32;131.20;;;70.35;;
46889;SDS011;32625;51.080;16.970;2023-12-07T01:41:00;129.30;;;68.05;;
46889;SDS011;32625;51.080;16.970;2023-12-07T01:43:27;135.75;;;74.22;;
46889;SDS011;32625;51.080;16.970;2023-12-07T01:45:55;139.50;;;76.05;;
46889;SDS011;32625;51.080;16.970;2023-12-07T01:48:24;121.65;;;65.10;;
46889;SDS011;32625;51.080;16.970;2023-12-07T01:50:56;142.63;;;74.00;;
46889;SDS011;32625;51.080;16.970;2023-12-07T01:53:24;138.75;;;72.30;;
46889;SDS011;32625;51.080;16.970;2023-12-07T01:55:51;131.10;;;70.57;;
46889;SDS011;32625;51.080;16.970;2023-12-07T01:58:19;128.25;;;69.10;;
46889;SDS011;32625;51.080;16.970;2023-12-07T02:00:47;134.90;;;72.45;;
46889;SDS011;32625;51.080;16.970;2023-12-07T02:03:14;135.68;;;71.65;;
46889;SDS011;32625;51.080;16.970;2023-12-07T02:05:43;139.30;;;75.57;;
46889;SDS011;32625;51.080;16.970;2023-12-07T02:08:13;129.98;;;69.43;;
46889;SDS011;32625;51.080;16.970;2023-12-07T02:10:41;149.55;;;78.03;;
46889;SDS011;32625;51.080;16.970;2023-12-07T02:13:08;135.70;;;70.18;;
46889;SDS011;32625;51.080;16.970;2023-12-07T02:15:35;125.63;;;64.57;;
46889;SDS011;32625;51.080;16.970;2023-12-07T02:18:10;132.52;;;69.18;;
46889;SDS011;32625;51.080;16.970;2023-12-07T02:20:49;123.13;;;66.47;;
46889;SDS011;32625;51.080;16.970;2023-12-07T02:23:20;132.05;;;70.60;;
46889;SDS011;32625;51.080;16.970;2023-12-07T02:26:06;129.55;;;73.28;;
46889;SDS011;32625;51.080;16.970;2023-12-07T02:28:34;138.48;;;72.47;;
46889;SDS011;32625;51.080;16.970;2023-12-07T02:31:01;138.85;;;73.10;;
46889;SDS011;32625;51.080;16.970;2023-12-07T02:33:29;128.00;;;67.63;;
46889;SDS011;32625;51.080;16.970;2023-12-07T02:35:56;128.48;;;70.75;;
46889;SDS011;32625;51.080;16.970;2023-12-07T02:38:25;125.65;;;69.25;;
46889;SDS011;32625;51.080;16.970;2023-12-07T02:40:53;120.80;;;65.20;;
46889;SDS011;32625;51.080;16.970;2023-12-07T02:43:21;139.07;;;75.43;;
46889;SDS011;32625;51.080;16.970;2023-12-07T02:45:49;120.45;;;67.05;;
46889;SDS011;32625;51.080;16.970;2023-12-07T02:48:16;134.48;;;70.15;;
46889;SDS011;32625;51.080;16.970;2023-12-07T02:50:44;125.43;;;67.47;;
46889;SDS011;32625;51.080;16.970;2023-12-07T02:53:11;136.48;;;71.32;;
46889;SDS011;32625;51.080;16.970;2023-12-07T02:55:39;127.75;;;68.40;;
46889;SDS011;32625;51.080;16.970;2023-12-07T02:58:06;130.73;;;72.90;;
46889;SDS011;32625;51.080;16.970;2023-12-07T03:00:34;134.13;;;71.75;;
46889;SDS011;32625;51.080;16.970;2023-12-07T03:03:01;130.45;;;66.53;;
46889;SDS011;32625;51.080;16.970;2023-12-07T03:05:28;129.38;;;69.50;;
46889;SDS011;32625;51.080;16.970;2023-12-07T03:07:56;129.95;;;68.60;;
46889;SDS011;32625;51.080;16.970;2023-12-07T03:10:23;127.15;;;66.22;;
46889;SDS011;32625;51.080;16.970;2023-12-07T03:12:50;126.60;;;68.75;;
46889;SDS011;32625;51.080;16.970;2023-12-07T03:15:18;126.25;;;68.88;;
46889;SDS011;32625;51.080;16.970;2023-12-07T03:17:45;136.00;;;73.78;;
46889;SDS011;32625;51.080;16.970;2023-12-07T03:20:13;125.78;;;66.85;;
46889;SDS011;32625;51.080;16.970;2023-12-07T03:22:40;130.23;;;67.25;;
46889;SDS011;32625;51.080;16.970;2023-12-07T03:25:08;127.28;;;66.18;;
46889;SDS011;32625;51.080;16.970;2023-12-07T03:27:35;125.22;;;68.68;;
46889;SDS011;32625;51.080;16.970;2023-12-07T03:30:03;128.68;;;68.70;;
46889;SDS011;32625;51.080;16.970;2023-12-07T03:32:30;122.18;;;66.60;;
46889;SDS011;32625;51.080;16.970;2023-12-07T03:34:57;138.05;;;73.03;;
46889;SDS011;32625;51.080;16.970;2023-12-07T03:37:25;129.98;;;69.70;;
46889;SDS011;32625;51.080;16.970;2023-12-07T03:39:52;131.20;;;70.15;;
46889;SDS011;32625;51.080;16.970;2023-12-07T03:42:19;136.07;;;71.80;;
46889;SDS011;32625;51.080;16.970;2023-12-07T03:45:07;138.45;;;74.82;;
46889;SDS011;32625;51.080;16.970;2023-12-07T03:47:34;130.68;;;69.97;;
46889;SDS011;32625;51.080;16.970;2023-12-07T03:50:02;130.13;;;69.00;;
46889;SDS011;32625;51.080;16.970;2023-12-07T03:52:29;132.38;;;66.57;;
46889;SDS011;32625;51.080;16.970;2023-12-07T03:54:56;124.10;;;66.07;;
46889;SDS011;32625;51.080;16.970;2023-12-07T03:57:24;141.27;;;77.03;;
46889;SDS011;32625;51.080;16.970;2023-12-07T03:59:52;139.68;;;68.95;;
46889;SDS011;32625;51.080;16.970;2023-12-07T04:02:20;143.85;;;76.70;;
46889;SDS011;32625;51.080;16.970;2023-12-07T04:04:48;138.00;;;77.35;;
46889;SDS011;32625;51.080;16.970;2023-12-07T04:07:16;146.48;;;76.15;;
46889;SDS011;32625;51.080;16.970;2023-12-07T04:09:43;145.32;;;74.15;;
46889;SDS011;32625;51.080;16.970;2023-12-07T04:12:11;148.52;;;76.43;;
46889;SDS011;32625;51.080;16.970;2023-12-07T04:14:38;134.25;;;71.65;;
46889;SDS011;32625;51.080;16.970;2023-12-07T04:17:06;144.95;;;72.78;;
46889;SDS011;32625;51.080;16.970;2023-12-07T04:19:33;156.95;;;80.80;;
46889;SDS011;32625;51.080;16.970;2023-12-07T04:22:01;151.10;;;76.68;;
46889;SDS011;32625;51.080;16.970;2023-12-07T04:24:28;147.57;;;76.78;;
46889;SDS011;32625;51.080;16.970;2023-12-07T04:26:56;135.52;;;73.63;;
46889;SDS011;32625;51.080;16.970;2023-12-07T04:29:23;143.85;;;77.47;;
46889;SDS011;32625;51.080;16.970;2023-12-07T04:31:50;147.23;;;74.45;;
46889;SDS011;32625;51.080;16.970;2023-12-07T04:34:17;137.05;;;74.65;;
46889;SDS011;32625;51.080;16.970;2023-12-07T04:36:45;138.82;;;70.78;;
46889;SDS011;32625;51.080;16.970;2023-12-07T04:39:12;133.35;;;71.13;;
46889;SDS011;32625;51.080;16.970;2023-12-07T04:41:39;142.40;;;76.15;;
46889;SDS011;32625;51.080;16.970;2023-12-07T04:44:07;126.95;;;68.53;;
46889;SDS011;32625;51.080;16.970;2023-12-07T04:46:34;143.32;;;75.95;;
46889;SDS011;32625;51.080;16.970;2023-12-07T04:49:02;132.05;;;70.93;;
46889;SDS011;32625;51.080;16.970;2023-12-07T04:51:30;142.75;;;72.43;;
46889;SDS011;32625;51.080;16.970;2023-12-07T04:53:57;148.52;;;82.00;;
46889;SDS011;32625;51.080;16.970;2023-12-07T04:56:41;141.45;;;73.80;;
46889;SDS011;32625;51.080;16.970;2023-12-07T04:59:09;141.95;;;73.70;;
46889;SDS011;32625;51.080;16.970;2023-12-07T05:01:36;150.65;;;77.68;;
46889;SDS011;32625;51.080;16.970;2023-12-07T05:04:04;141.00;;;74.60;;
46889;SDS011;32625;51.080;16.970;2023-12-07T05:06:32;142.50;;;73.45;;
46889;SDS011;32625;51.080;16.970;2023-12-07T05:08:59;150.23;;;75.32;;
46889;SDS011;32625;51.080;16.970;2023-12-07T05:11:26;154.55;;;82.63;;
46889;SDS011;32625;51.080;16.970;2023-12-07T05:13:53;155.52;;;84.22;;
46889;SDS011;32625;51.080;16.970;2023-12-07T05:16:21;155.77;;;78.72;;
46889;SDS011;32625;51.080;16.970;2023-12-07T05:18:49;157.85;;;80.25;;
46889;SDS011;32625;51.080;16.970;2023-12-07T05:21:16;150.32;;;79.78;;
46889;SDS011;32625;51.080;16.970;2023-12-07T05:23:43;169.18;;;86.93;;
46889;SDS011;32625;51.080;16.970;2023-12-07T05:26:11;170.60;;;85.10;;
46889;SDS011;32625;51.080;16.970;2023-12-07T05:28:38;173.45;;;82.18;;
46889;SDS011;32625;51.080;16.970;2023-12-07T05:31:05;174.38;;;84.88;;
46889;SDS011;32625;51.080;16.970;2023-12-07T05:33:33;174.63;;;84.28;;
46889;SDS011;32625;51.080;16.970;2023-12-07T05:36:00;176.18;;;88.75;;
46889;SDS011;32625;51.080;16.970;2023-12-07T05:38:30;174.73;;;88.60;;
46889;SDS011;32625;51.080;16.970;2023-12-07T05:40:57;160.73;;;77.13;;
46889;SDS011;32625;51.080;16.970;2023-12-07T05:43:24;171.73;;;87.93;;
46889;SDS011;32625;51.080;16.970;2023-12-07T05:45:52;180.40;;;85.68;;
46889;SDS011;32625;51.080;16.970;2023-12-07T05:48:19;173.38;;;86.90;;
46889;SDS011;32625;51.080;16.970;2023-12-07T05:50:47;177.70;;;85.38;;
46889;SDS011;32625;51.080;16.970;2023-12-07T05:53:15;176.85;;;82.43;;
46889;SDS011;32625;51.080;16.970;2023-12-07T05:55:43;169.80;;;86.45;;
46889;SDS011;32625;51.080;16.970;2023-12-07T05:58:10;163.02;;;81.28;;
46889;SDS011;32625;51.080;16.970;2023-12-07T06:00:38;191.15;;;86.75;;
46889;SDS011;32625;51.080;16.970;2023-12-07T06:03:06;184.93;;;89.88;;
46889;SDS011;32625;51.080;16.970;2023-12-07T06:05:38;183.43;;;85.72;;
46889;SDS011;32625;51.080;16.970;2023-12-07T06:08:06;192.57;;;84.22;;
46889;SDS011;32625;51.080;16.970;2023-12-07T06:10:33;189.65;;;90.30;;
46889;SDS011;32625;51.080;16.970;2023-12-07T06:13:01;175.13;;;81.97;;
46889;SDS011;32625;51.080;16.970;2023-12-07T06:15:30;177.73;;;80.15;;
46889;SDS011;32625;51.080;16.970;2023-12-07T06:17:57;175.25;;;77.78;;
46889;SDS011;32625;51.080;16.970;2023-12-07T06:20:25;187.38;;;83.72;;
46889;SDS011;32625;51.080;16.970;2023-12-07T06:22:53;194.93;;;86.22;;
46889;SDS011;32625;51.080;16.970;2023-12-07T06:25:20;181.27;;;81.40;;
46889;SDS011;32625;51.080;16.970;2023-12-07T06:27:47;198.75;;;88.13;;
46889;SDS011;32625;51.080;16.970;2023-12-07T06:30:15;208.02;;;91.65;;
46889;SDS011;32625;51.080;16.970;2023-12-07T06:32:42;191.32;;;87.60;;
46889;SDS011;32625;51.080;16.970;2023-12-07T06:35:12;193.63;;;88.75;;
46889;SDS011;32625;51.080;16.970;2023-12-07T06:37:39;197.02;;;87.50;;
46889;SDS011;32625;51.080;16.970;2023-12-07T06:40:11;207.27;;;93.70;;
46889;SDS011;32625;51.080;16.970;2023-12-07T06:42:38;192.55;;;84.18;;
46889;SDS011;32625;51.080;16.970;2023-12-07T06:45:06;195.32;;;89.97;;
46889;SDS011;32625;51.080;16.970;2023-12-07T06:47:37;187.95;;;84.57;;
46889;SDS011;32625;51.080;16.970;2023-12-07T06:50:05;190.77;;;89.13;;
46889;SDS011;32625;51.080;16.970;2023-12-07T06:52:36;173.80;;;84.13;;
46889;SDS011;32625;51.080;16.970;2023-12-07T06:55:04;206.90;;;96.75;;
46889;SDS011;32625;51.080;16.970;2023-12-07T06:57:32;192.35;;;87.88;;
46889;SDS011;32625;51.080;16.970;2023-12-07T07:00:00;185.05;;;81.75;;
46889;SDS011;32625;51.080;16.970;2023-12-07T07:02:31;196.10;;;85.60;;
46889;SDS011;32625;51.080;16.970;2023-12-07T07:04:59;204.13;;;92.15;;
46889;SDS011;32625;51.080;16.970;2023-12-07T07:07:26;179.80;;;85.85;;
46889;SDS011;32625;51.080;16.970;2023-12-07T07:09:57;195.40;;;89.03;;
46889;SDS011;32625;51.080;16.970;2023-12-07T07:12:25;173.95;;;79.78;;
46889;SDS011;32625;51.080;16.970;2023-12-07T07:14:53;219.13;;;95.65;;
46889;SDS011;32625;51.080;16.970;2023-12-07T07:17:20;189.70;;;85.82;;
46889;SDS011;32625;51.080;16.970;2023-12-07T07:19:48;170.32;;;80.00;;
46889;SDS011;32625;51.080;16.970;2023-12-07T07:22:15;170.55;;;83.30;;
46889;SDS011;32625;51.080;16.970;2023-12-07T07:24:43;185.65;;;84.90;;
46889;SDS011;32625;51.080;16.970;2023-12-07T07:27:10;176.18;;;80.22;;
46889;SDS011;32625;51.080;16.970;2023-12-07T07:29:38;181.80;;;85.03;;
46889;SDS011;32625;51.080;16.970;2023-12-07T07:32:05;186.88;;;90.03;;
46889;SDS011;32625;51.080;16.970;2023-12-07T07:34:33;173.85;;;82.03;;
46889;SDS011;32625;51.080;16.970;2023-12-07T07:37:00;174.20;;;78.32;;
46889;SDS011;32625;51.080;16.970;2023-12-07T07:39:29;188.50;;;83.38;;
46889;SDS011;32625;51.080;16.970;2023-12-07T07:41:56;174.10;;;81.13;;
46889;SDS011;32625;51.080;16.970;2023-12-07T07:44:24;171.98;;;82.47;;
46889;SDS011;32625;51.080;16.970;2023-12-07T07:46:51;193.48;;;87.22;;
46889;SDS011;32625;51.080;16.970;2023-12-07T07:49:18;179.40;;;82.13;;
46889;SDS011;32625;51.080;16.970;2023-12-07T07:51:46;197.82;;;85.00;;
46889;SDS011;32625;51.080;16.970;2023-12-07T07:54:13;179.57;;;83.68;;
46889;SDS011;32625;51.080;16.970;2023-12-07T07:56:42;192.55;;;90.47;;
46889;SDS011;32625;51.080;16.970;2023-12-07T07:59:10;190.43;;;86.40;;
46889;SDS011;32625;51.080;16.970;2023-12-07T08:01:37;185.10;;;91.50;;
46889;SDS011;32625;51.080;16.970;2023-12-07T08:04:05;193.63;;;90.93;;
46889;SDS011;32625;51.080;16.970;2023-12-07T08:06:32;186.23;;;85.38;;
46889;SDS011;32625;51.080;16.970;2023-12-07T08:09:03;196.43;;;89.68;;
46889;SDS011;32625;51.080;16.970;2023-12-07T08:11:30;185.98;;;82.82;;
46889;SDS011;32625;51.080;16.970;2023-12-07T08:13:59;157.93;;;77.55;;
46889;SDS011;32625;51.080;16.970;2023-12-07T08:16:26;204.93;;;87.22;;
46889;SDS011;32625;51.080;16.970;2023-12-07T08:18:54;188.45;;;84.22;;
46889;SDS011;32625;51.080;16.970;2023-12-07T08:21:22;187.63;;;82.10;;
46889;SDS011;32625;51.080;16.970;2023-12-07T08:23:56;195.30;;;83.53;;
46889;SDS011;32625;51.080;16.970;2023-12-07T08:26:23;186.75;;;82.05;;
46889;SDS011;32625;51.080;16.970;2023-12-07T08:28:50;181.95;;;80.38;;
46889;SDS011;32625;51.080;16.970;2023-12-07T08:31:21;173.50;;;79.30;;
46889;SDS011;32625;51.080;16.970;2023-12-07T08:33:50;196.27;;;82.70;;
46889;SDS011;32625;51.080;16.970;2023-12-07T08:36:18;197.38;;;84.35;;
46889;SDS011;32625;51.080;16.970;2023-12-07T08:38:46;182.85;;;79.45;;
46889;SDS011;32625;51.080;16.970;2023-12-07T08:41:13;174.13;;;76.50;;
46889;SDS011;32625;51.080;16.970;2023-12-07T08:43:41;180.25;;;78.15;;
46889;SDS011;32625;51.080;16.970;2023-12-07T08:46:08;171.85;;;74.80;;
46889;SDS011;32625;51.080;16.970;2023-12-07T08:48:36;176.30;;;74.57;;
46889;SDS011;32625;51.080;16.970;2023-12-07T08:51:08;175.65;;;74.68;;
46889;SDS011;32625;51.080;16.970;2023-12-07T08:53:36;187.82;;;78.85;;
46889;SDS011;32625;51.080;16.970;2023-12-07T08:56:04;189.52;;;78.88;;
46889;SDS011;32625;51.080;16.970;2023-12-07T08:58:31;177.43;;;74.82;;
46889;SDS011;32625;51.080;16.970;2023-12-07T09:00:59;182.70;;;79.03;;
46889;SDS011;32625;51.080;16.970;2023-12-07T09:03:26;178.80;;;78.25;;
46889;SDS011;32625;51.080;16.970;2023-12-07T09:06:01;180.93;;;75.50;;
46889;SDS011;32625;51.080;16.970;2023-12-07T09:08:29;183.10;;;76.57;;
46889;SDS011;32625;51.080;16.970;2023-12-07T09:10:56;160.68;;;72.05;;
46889;SDS011;32625;51.080;16.970;2023-12-07T09:13:23;185.63;;;79.28;;
46889;SDS011;32625;51.080;16.970;2023-12-07T09:15:51;172.93;;;73.82;;
46889;SDS011;32625;51.080;16.970;2023-12-07T09:18:20;193.38;;;80.72;;
46889;SDS011;32625;51.080;16.970;2023-12-07T09:20:47;179.98;;;73.50;;
46889;SDS011;32625;51.080;16.970;2023-12-07T09:23:16;181.35;;;77.28;;
46889;SDS011;32625;51.080;16.970;2023-12-07T09:25:43;183.80;;;78.80;;
46889;SDS011;32625;51.080;16.970;2023-12-07T09:28:11;180.75;;;74.18;;
46889;SDS011;32625;51.080;16.970;2023-12-07T09:30:41;189.85;;;79.40;;
46889;SDS011;32625;51.080;16.970;2023-12-07T09:33:08;159.40;;;70.22;;
46889;SDS011;32625;51.080;16.970;2023-12-07T09:35:36;178.80;;;74.28;;
46889;SDS011;32625;51.080;16.970;2023-12-07T09:38:03;174.20;;;70.50;;
46889;SDS011;32625;51.080;16.970;2023-12-07T09:40:31;184.70;;;72.88;;
46889;SDS011;32625;51.080;16.970;2023-12-07T09:42:58;183.70;;;71.78;;
46889;SDS011;32625;51.080;16.970;2023-12-07T09:45:25;177.40;;;71.68;;
46889;SDS011;32625;51.080;16.970;2023-12-07T09:47:54;189.85;;;75.65;;
46889;SDS011;32625;51.080;16.970;2023-12-07T09:50:26;168.32;;;69.50;;
46889;SDS011;32625;51.080;16.970;2023-12-07T09:52:57;178.90;;;73.57;;
46889;SDS011;32625;51.080;16.970;2023-12-07T09:55:34;171.05;;;69.05;;
46889;SDS011;32625;51.080;16.970;2023-12-07T09:58:04;154.60;;;63.92;;
46889;SDS011;32625;51.080;16.970;2023-12-07T10:00:34;152.30;;;64.35;;
46889;SDS011;32625;51.080;16.970;2023-12-07T10:03:02;159.15;;;65.22;;
46889;SDS011;32625;51.080;16.970;2023-12-07T10:05:34;163.68;;;67.78;;
46889;SDS011;32625;51.080;16.970;2023-12-07T10:08:40;165.15;;;63.30;;
46889;SDS011;32625;51.080;16.970;2023-12-07T10:11:10;177.15;;;68.28;;
46889;SDS011;32625;51.080;16.970;2023-12-07T10:13:39;158.73;;;63.22;;
46889;SDS011;32625;51.080;16.970;2023-12-07T10:16:09;165.70;;;65.85;;
46889;SDS011;32625;51.080;16.970;2023-12-07T10:18:41;190.70;;;72.00;;
46889;SDS011;32625;51.080;16.970;2023-12-07T10:21:11;183.52;;;72.35;;
46889;SDS011;32625;51.080;16.970;2023-12-07T10:23:40;177.45;;;70.10;;
46889;SDS011;32625;51.080;16.970;2023-12-07T10:26:10;170.13;;;67.15;;
46889;SDS011;32625;51.080;16.970;2023-12-07T10:28:37;170.15;;;66.63;;
46889;SDS011;32625;51.080;16.970;2023-12-07T10:31:09;184.35;;;70.43;;
46889;SDS011;32625;51.080;16.970;2023-12-07T10:33:39;172.20;;;68.15;;
46889;SDS011;32625;51.080;16.970;2023-12-07T10:36:07;172.95;;;64.88;;
46889;SDS011;32625;51.080;16.970;2023-12-07T10:38:34;151.25;;;59.33;;
46889;SDS011;32625;51.080;16.970;2023-12-07T10:41:04;145.35;;;59.20;;
46889;SDS011;32625;51.080;16.970;2023-12-07T10:43:36;159.05;;;65.78;;
46889;SDS011;32625;51.080;16.970;2023-12-07T10:46:04;149.90;;;60.03;;
46889;SDS011;32625;51.080;16.970;2023-12-07T10:48:33;164.25;;;69.78;;
46889;SDS011;32625;51.080;16.970;2023-12-07T10:51:06;166.95;;;63.75;;
46889;SDS011;32625;51.080;16.970;2023-12-07T10:53:40;150.13;;;62.90;;
46889;SDS011;32625;51.080;16.970;2023-12-07T10:58:40;155.88;;;58.92;;
46889;SDS011;32625;51.080;16.970;2023-12-07T11:01:08;149.88;;;60.70;;
46889;SDS011;32625;51.080;16.970;2023-12-07T11:03:37;147.90;;;61.08;;
46889;SDS011;32625;51.080;16.970;2023-12-07T11:06:07;144.68;;;58.38;;
46889;SDS011;32625;51.080;16.970;2023-12-07T11:08:39;136.98;;;57.92;;
46889;SDS011;32625;51.080;16.970;2023-12-07T11:11:24;137.80;;;56.72;;
46889;SDS011;32625;51.080;16.970;2023-12-07T11:14:13;132.52;;;55.63;;
46889;SDS011;32625;51.080;16.970;2023-12-07T11:16:43;133.90;;;57.53;;
46889;SDS011;32625;51.080;16.970;2023-12-07T11:22:06;122.47;;;55.20;;
46889;SDS011;32625;51.080;16.970;2023-12-07T11:24:34;128.85;;;54.67;;
46889;SDS011;32625;51.080;16.970;2023-12-07T11:27:02;102.28;;;47.17;;
46889;SDS011;32625;51.080;16.970;2023-12-07T11:29:30;113.82;;;49.33;;
46889;SDS011;32625;51.080;16.970;2023-12-07T11:32:01;108.88;;;48.97;;
46889;SDS011;32625;51.080;16.970;2023-12-07T11:34:42;110.38;;;49.05;;
46889;SDS011;32625;51.080;16.970;2023-12-07T11:37:11;98.95;;;48.30;;
46889;SDS011;32625;51.080;16.970;2023-12-07T11:39:42;95.45;;;44.65;;
46889;SDS011;32625;51.080;16.970;2023-12-07T11:42:12;98.82;;;48.53;;
46889;SDS011;32625;51.080;16.970;2023-12-07T11:44:42;93.40;;;44.15;;
46889;SDS011;32625;51.080;16.970;2023-12-07T11:47:16;90.57;;;44.92;;
46889;SDS011;32625;51.080;16.970;2023-12-07T11:49:45;79.70;;;42.40;;
46889;SDS011;32625;51.080;16.970;2023-12-07T11:52:13;84.03;;;39.95;;
46889;SDS011;32625;51.080;16.970;2023-12-07T11:54:45;90.53;;;42.88;;
46889;SDS011;32625;51.080;16.970;2023-12-07T11:57:14;93.03;;;44.22;;
46889;SDS011;32625;51.080;16.970;2023-12-07T11:59:45;91.45;;;45.35;;
46889;SDS011;32625;51.080;16.970;2023-12-07T12:02:15;82.55;;;40.95;;
46889;SDS011;32625;51.080;16.970;2023-12-07T12:04:42;79.05;;;40.00;;
46889;SDS011;32625;51.080;16.970;2023-12-07T12:07:10;80.68;;;40.13;;
46889;SDS011;32625;51.080;16.970;2023-12-07T12:09:37;81.60;;;40.22;;
46889;SDS011;32625;51.080;16.970;2023-12-07T12:12:05;87.00;;;42.88;;
46889;SDS011;32625;51.080;16.970;2023-12-07T12:14:32;74.60;;;38.45;;
46889;SDS011;32625;51.080;16.970;2023-12-07T12:17:00;79.65;;;39.88;;
46889;SDS011;32625;51.080;16.970;2023-12-07T12:19:27;77.47;;;41.70;;
46889;SDS011;32625;51.080;16.970;2023-12-07T12:22:02;77.57;;;38.67;;
46889;SDS011;32625;51.080;16.970;2023-12-07T12:24:33;77.17;;;39.07;;
46889;SDS011;32625;51.080;16.970;2023-12-07T12:27:02;83.85;;;42.20;;
46889;SDS011;32625;51.080;16.970;2023-12-07T12:29:29;76.95;;;40.38;;
46889;SDS011;32625;51.080;16.970;2023-12-07T12:32:03;75.18;;;41.42;;
46889;SDS011;32625;51.080;16.970;2023-12-07T12:34:32;72.90;;;37.97;;
46889;SDS011;32625;51.080;16.970;2023-12-07T12:37:01;82.78;;;43.00;;
46889;SDS011;32625;51.080;16.970;2023-12-07T12:39:29;75.90;;;39.20;;
46889;SDS011;32625;51.080;16.970;2023-12-07T12:42:00;74.68;;;39.60;;
46889;SDS011;32625;51.080;16.970;2023-12-07T12:44:29;87.20;;;43.83;;
46889;SDS011;32625;51.080;16.970;2023-12-07T12:47:07;77.45;;;40.05;;
46889;SDS011;32625;51.080;16.970;2023-12-07T12:49:40;85.38;;;43.33;;
46889;SDS011;32625;51.080;16.970;2023-12-07T12:52:14;72.38;;;40.15;;
46889;SDS011;32625;51.080;16.970;2023-12-07T12:54:45;74.10;;;39.25;;
46889;SDS011;32625;51.080;16.970;2023-12-07T12:57:16;73.20;;;39.05;;
46889;SDS011;32625;51.080;16.970;2023-12-07T12:59:44;73.57;;;39.35;;
46889;SDS011;32625;51.080;16.970;2023-12-07T13:02:11;77.45;;;43.05;;
46889;SDS011;32625;51.080;16.970;2023-12-07T13:04:38;81.07;;;43.10;;
46889;SDS011;32625;51.080;16.970;2023-12-07T13:07:08;74.32;;;39.45;;
46889;SDS011;32625;51.080;16.970;2023-12-07T13:09:35;80.85;;;40.95;;
46889;SDS011;32625;51.080;16.970;2023-12-07T13:12:03;82.63;;;43.70;;
46889;SDS011;32625;51.080;16.970;2023-12-07T13:14:32;75.40;;;39.53;;
46889;SDS011;32625;51.080;16.970;2023-12-07T13:17:05;70.85;;;40.13;;
46889;SDS011;32625;51.080;16.970;2023-12-07T13:19:34;82.90;;;42.25;;
46889;SDS011;32625;51.080;16.970;2023-12-07T13:22:02;87.07;;;47.90;;
46889;SDS011;32625;51.080;16.970;2023-12-07T13:24:30;81.80;;;41.65;;
46889;SDS011;32625;51.080;16.970;2023-12-07T13:26:57;82.30;;;46.38;;
46889;SDS011;32625;51.080;16.970;2023-12-07T13:29:27;75.85;;;42.33;;
46889;SDS011;32625;51.080;16.970;2023-12-07T13:32:02;82.63;;;46.72;;
46889;SDS011;32625;51.080;16.970;2023-12-07T13:34:30;84.93;;;48.95;;
46889;SDS011;32625;51.080;16.970;2023-12-07T13:36:57;84.80;;;48.45;;
46889;SDS011;32625;51.080;16.970;2023-12-07T13:39:24;85.35;;;49.13;;
46889;SDS011;32625;51.080;16.970;2023-12-07T13:41:57;78.80;;;43.83;;
46889;SDS011;32625;51.080;16.970;2023-12-07T13:44:27;82.57;;;44.53;;
46889;SDS011;32625;51.080;16.970;2023-12-07T13:46:55;83.25;;;45.70;;
46889;SDS011;32625;51.080;16.970;2023-12-07T13:49:24;86.15;;;48.42;;
46889;SDS011;32625;51.080;16.970;2023-12-07T13:51:59;74.72;;;41.85;;
46889;SDS011;32625;51.080;16.970;2023-12-07T13:54:33;79.30;;;43.83;;
46889;SDS011;32625;51.080;16.970;2023-12-07T13:57:05;73.38;;;39.35;;
46889;SDS011;32625;51.080;16.970;2023-12-07T13:59:34;78.70;;;42.65;;
46889;SDS011;32625;51.080;16.970;2023-12-07T14:02:03;70.45;;;39.17;;
46889;SDS011;32625;51.080;16.970;2023-12-07T14:04:30;72.63;;;39.15;;
46889;SDS011;32625;51.080;16.970;2023-12-07T14:07:07;86.47;;;46.28;;
46889;SDS011;32625;51.080;16.970;2023-12-07T14:09:39;73.15;;;41.38;;
46889;SDS011;32625;51.080;16.970;2023-12-07T14:12:22;75.90;;;42.80;;